createdAt,value
2022-08-31T00:00:40.564Z,23.64
2022-08-31T00:03:26.682Z,23.59
2022-08-31T00:05:59.974Z,23.59
2022-08-31T00:08:29.650Z,23.55
2022-08-31T00:10:58.352Z,23.50
2022-08-31T00:13:27.854Z,23.48
2022-08-31T00:15:58.534Z,23.43
2022-08-31T00:18:27.068Z,23.41
2022-08-31T00:20:56.357Z,23.40
2022-08-31T00:23:26.299Z,23.38
2022-08-31T00:25:54.869Z,23.36
2022-08-31T00:28:23.536Z,23.33
2022-08-31T00:30:52.068Z,23.32
2022-08-31T00:33:20.629Z,23.30
2022-08-31T00:35:49.533Z,23.23
2022-08-31T00:38:18.513Z,23.16
2022-08-31T00:40:49.209Z,23.16
2022-08-31T00:43:41.112Z,23.12
2022-08-31T00:46:11.237Z,23.09
2022-08-31T00:48:46.092Z,23.10
2022-08-31T00:51:18.574Z,23.11
2022-08-31T00:53:48.852Z,23.11
2022-08-31T00:56:21.962Z,23.04
2022-08-31T00:58:54.446Z,23.04
2022-08-31T01:01:24.418Z,22.93
2022-08-31T01:03:53.127Z,22.92
2022-08-31T01:06:22.129Z,22.91
2022-08-31T01:08:52.088Z,22.89
2022-08-31T01:11:22.673Z,22.87
2022-08-31T01:13:51.334Z,22.82
2022-08-31T01:16:24.118Z,22.79
2022-08-31T01:18:54.391Z,22.77
2022-08-31T01:21:28.087Z,22.76
2022-08-31T01:24:01.740Z,22.75
2022-08-31T01:26:33.149Z,22.69
2022-08-31T01:29:06.229Z,22.63
2022-08-31T01:31:38.567Z,22.58
2022-08-31T01:34:08.097Z,22.59
2022-08-31T01:36:38.718Z,22.59
2022-08-31T01:39:09.716Z,22.53
2022-08-31T01:41:41.534Z,22.32
2022-08-31T01:44:10.850Z,22.18
2022-08-31T01:46:39.530Z,22.12
2022-08-31T01:49:08.322Z,22.06
2022-08-31T01:51:37.199Z,21.97
2022-08-31T01:54:06.504Z,21.97
2022-08-31T01:56:38.729Z,21.80
2022-08-31T01:59:12.688Z,21.77
2022-08-31T02:02:00.288Z,21.72
2022-08-31T02:04:30.627Z,21.68
2022-08-31T02:07:17.737Z,21.69
2022-08-31T02:09:47.192Z,21.65
2022-08-31T02:12:17.268Z,21.60
2022-08-31T02:14:45.752Z,21.59
2022-08-31T02:17:14.481Z,21.47
2022-08-31T02:19:43.095Z,21.44
2022-08-31T02:22:12.889Z,21.42
2022-08-31T02:24:41.519Z,21.42
2022-08-31T02:27:17.582Z,21.37
2022-08-31T02:29:53.377Z,21.35
2022-08-31T02:32:25.238Z,21.27
2022-08-31T02:34:53.841Z,21.23
2022-08-31T02:37:22.364Z,21.15
2022-08-31T02:39:51.234Z,21.08
2022-08-31T02:42:23.112Z,21.02
2022-08-31T02:44:53.568Z,21.00
2022-08-31T02:47:22.232Z,20.90
2022-08-31T02:50:09.480Z,20.94
2022-08-31T02:52:38.500Z,20.86
2022-08-31T02:55:11.802Z,20.87
2022-08-31T02:57:40.680Z,20.83
2022-08-31T03:00:15.393Z,20.82
2022-08-31T03:02:44.141Z,20.84
2022-08-31T03:05:13.066Z,20.70
2022-08-31T03:07:42.272Z,20.67
2022-08-31T03:10:14.930Z,20.70
2022-08-31T03:12:45.065Z,20.70
2022-08-31T03:15:16.609Z,20.75
2022-08-31T03:17:48.255Z,20.76
2022-08-31T03:20:19.571Z,20.76
2022-08-31T03:22:48.360Z,20.80
2022-08-31T03:25:19.228Z,20.82
2022-08-31T03:27:47.878Z,20.85
2022-08-31T03:30:21.774Z,20.76
2022-08-31T03:33:09.978Z,20.72
2022-08-31T03:35:43.748Z,20.63
2022-08-31T03:38:14.134Z,20.62
2022-08-31T03:40:45.314Z,20.62
2022-08-31T03:43:14.715Z,20.64
2022-08-31T03:45:45.804Z,20.58
2022-08-31T03:48:14.751Z,20.56
2022-08-31T03:50:46.194Z,20.56
2022-08-31T03:53:23.603Z,20.61
2022-08-31T03:56:01.182Z,20.55
2022-08-31T03:58:33.447Z,20.57
2022-08-31T04:01:04.135Z,20.62
2022-08-31T04:03:52.635Z,20.63
2022-08-31T04:06:41.268Z,20.60
2022-08-31T04:09:28.199Z,20.60
2022-08-31T04:12:16.202Z,20.61
2022-08-31T04:15:03.612Z,20.60
2022-08-31T04:17:59.501Z,20.61
2022-08-31T04:20:45.161Z,20.57
2022-08-31T04:23:13.985Z,20.51
2022-08-31T04:25:52.138Z,20.55
2022-08-31T04:28:20.767Z,20.47
2022-08-31T04:30:52.831Z,20.54
2022-08-31T04:33:23.636Z,20.50
2022-08-31T04:35:53.472Z,20.47
2022-08-31T04:38:21.992Z,20.43
2022-08-31T04:40:52.378Z,20.43
2022-08-31T04:43:21.249Z,20.41
2022-08-31T04:45:52.852Z,20.38
2022-08-31T04:48:23.174Z,20.45
2022-08-31T04:50:51.912Z,20.48
2022-08-31T04:53:20.615Z,20.54
2022-08-31T04:55:49.237Z,20.54
2022-08-31T04:58:20.598Z,20.58
2022-08-31T05:00:49.136Z,20.61
2022-08-31T05:03:35.923Z,20.60
2022-08-31T05:06:05.930Z,20.66
2022-08-31T05:08:35.213Z,20.70
2022-08-31T05:11:11.256Z,20.72
2022-08-31T05:13:39.965Z,20.67
2022-08-31T05:16:10.797Z,20.64
2022-08-31T05:18:42.533Z,20.63
2022-08-31T05:21:11.773Z,20.55
2022-08-31T05:23:40.905Z,20.49
2022-08-31T05:26:10.172Z,20.57
2022-08-31T05:28:39.272Z,20.57
2022-08-31T05:31:08.175Z,20.63
2022-08-31T05:33:46.890Z,20.56
2022-08-31T05:36:17.399Z,20.60
2022-08-31T05:38:46.139Z,20.66
2022-08-31T05:41:15.624Z,20.62
2022-08-31T05:43:45.164Z,20.65
2022-08-31T05:46:16.097Z,20.64
2022-08-31T05:48:49.479Z,20.65
2022-08-31T05:51:20.595Z,20.45
2022-08-31T05:53:50.015Z,20.53
2022-08-31T05:56:20.996Z,20.52
2022-08-31T05:58:51.559Z,20.58
2022-08-31T06:01:22.686Z,20.53
2022-08-31T06:04:13.379Z,20.48
2022-08-31T06:06:43.433Z,20.38
2022-08-31T06:09:14.889Z,20.39
2022-08-31T06:11:44.914Z,20.06
2022-08-31T06:14:18.557Z,20.16
2022-08-31T06:16:48.598Z,20.13
2022-08-31T06:19:21.716Z,20.17
2022-08-31T06:21:52.049Z,20.20
2022-08-31T06:24:28.011Z,20.21
2022-08-31T06:26:59.433Z,20.18
2022-08-31T06:29:32.901Z,20.20
2022-08-31T06:32:08.919Z,20.25
2022-08-31T06:34:43.642Z,20.31
2022-08-31T06:37:18.471Z,20.32
2022-08-31T06:40:07.186Z,20.40
2022-08-31T06:42:55.951Z,20.34
2022-08-31T06:45:43.022Z,20.13
2022-08-31T06:48:40.508Z,20.23
2022-08-31T06:51:12.437Z,20.27
2022-08-31T06:53:42.630Z,20.22
2022-08-31T06:56:36.131Z,20.18
2022-08-31T06:59:28.442Z,20.18
2022-08-31T07:01:58.659Z,20.22
2022-08-31T07:04:36.061Z,20.19
2022-08-31T07:07:07.914Z,20.25
2022-08-31T07:09:36.990Z,20.25
2022-08-31T07:12:06.292Z,20.32
2022-08-31T07:14:35.910Z,20.32
2022-08-31T07:17:05.367Z,20.32
2022-08-31T07:19:35.090Z,20.31
2022-08-31T07:22:09.426Z,20.36
2022-08-31T07:24:43.481Z,20.35
2022-08-31T07:27:16.600Z,20.47
2022-08-31T07:30:00.609Z,20.62
2022-08-31T07:32:34.133Z,20.61
2022-08-31T07:35:03.603Z,20.65
2022-08-31T07:37:52.258Z,20.63
2022-08-31T07:40:43.655Z,20.74
2022-08-31T07:43:15.128Z,20.83
2022-08-31T07:45:44.156Z,20.88
2022-08-31T07:48:16.744Z,20.87
2022-08-31T07:51:03.647Z,20.88
2022-08-31T07:53:57.831Z,20.78
2022-08-31T07:56:35.123Z,20.82
2022-08-31T07:59:17.682Z,20.87
2022-08-31T08:01:47.848Z,20.87
2022-08-31T08:04:25.623Z,20.78
2022-08-31T08:07:26.508Z,20.80
2022-08-31T08:10:14.580Z,20.76
2022-08-31T08:12:44.308Z,20.72
2022-08-31T08:15:33.209Z,20.69
2022-08-31T08:18:30.557Z,20.66
2022-08-31T08:21:03.128Z,20.68
2022-08-31T08:23:31.966Z,20.73
2022-08-31T08:26:21.648Z,20.67
2022-08-31T08:29:13.925Z,20.59
2022-08-31T08:31:46.462Z,20.56
2022-08-31T08:34:15.201Z,20.58
2022-08-31T08:36:43.805Z,20.60
2022-08-31T08:39:13.058Z,20.49
2022-08-31T08:41:54.380Z,20.51
2022-08-31T08:44:27.171Z,20.50
2022-08-31T08:46:58.284Z,20.58
2022-08-31T08:49:41.582Z,20.65
2022-08-31T08:52:16.067Z,20.71
2022-08-31T08:54:48.181Z,20.72
2022-08-31T08:57:23.729Z,20.74
2022-08-31T08:59:57.576Z,20.68
2022-08-31T09:02:32.683Z,20.73
2022-08-31T09:05:38.183Z,20.73
2022-08-31T09:08:48.299Z,20.79
2022-08-31T09:11:24.013Z,20.80
2022-08-31T09:14:10.089Z,20.88
2022-08-31T09:16:50.666Z,21.02
2022-08-31T09:19:21.880Z,21.14
2022-08-31T09:21:53.136Z,21.28
2022-08-31T09:24:26.922Z,21.47
2022-08-31T09:27:19.096Z,21.64
2022-08-31T09:29:55.448Z,21.69
2022-08-31T09:32:26.605Z,21.78
2022-08-31T09:35:01.867Z,21.71
2022-08-31T09:37:38.305Z,21.68
2022-08-31T09:40:23.664Z,21.53
2022-08-31T09:43:04.463Z,21.46
2022-08-31T09:45:42.038Z,21.39
2022-08-31T09:48:10.630Z,21.32
2022-08-31T09:50:45.298Z,21.29
2022-08-31T09:53:39.565Z,21.33
2022-08-31T09:56:19.977Z,21.37
2022-08-31T09:58:51.098Z,21.47
2022-08-31T10:01:25.928Z,21.60
2022-08-31T10:04:12.399Z,21.78
2022-08-31T10:06:49.854Z,21.98
2022-08-31T10:09:28.727Z,22.13
2022-08-31T10:11:59.985Z,22.14
2022-08-31T10:14:36.826Z,22.19
2022-08-31T10:17:15.322Z,22.11
2022-08-31T10:19:53.491Z,22.29
2022-08-31T10:22:28.455Z,22.29
2022-08-31T10:25:12.278Z,22.25
2022-08-31T10:27:45.350Z,22.28
2022-08-31T10:30:29.342Z,22.28
2022-08-31T10:33:06.658Z,22.19
2022-08-31T10:35:45.056Z,22.06
2022-08-31T10:38:24.287Z,22.12
2022-08-31T10:41:02.622Z,22.38
2022-08-31T10:43:40.027Z,23.17
2022-08-31T10:46:08.622Z,24.02
2022-08-31T10:48:51.062Z,24.34
2022-08-31T10:51:27.104Z,24.16
2022-08-31T10:54:29.070Z,24.09
2022-08-31T10:57:06.666Z,24.08
2022-08-31T10:59:40.947Z,23.83
2022-08-31T11:02:39.173Z,24.05
2022-08-31T11:05:23.075Z,24.38
2022-08-31T11:08:00.825Z,24.57
2022-08-31T11:10:42.640Z,24.74
2022-08-31T11:13:25.663Z,24.53
2022-08-31T11:16:09.815Z,24.35
2022-08-31T11:19:19.570Z,24.12
2022-08-31T11:22:16.633Z,23.83
2022-08-31T11:25:29.637Z,23.61
2022-08-31T11:28:07.217Z,23.33
2022-08-31T11:30:41.851Z,23.28
2022-08-31T11:33:20.509Z,23.36
2022-08-31T11:36:10.417Z,23.43
2022-08-31T11:39:36.256Z,23.17
2022-08-31T11:42:10.451Z,23.09
2022-08-31T11:45:07.208Z,23.11
2022-08-31T11:47:39.017Z,23.14
2022-08-31T11:50:14.350Z,23.12
2022-08-31T11:52:48.424Z,23.08
2022-08-31T11:55:28.802Z,23.07
2022-08-31T11:58:35.021Z,22.86
2022-08-31T12:01:09.656Z,22.70
2022-08-31T12:03:46.296Z,22.55
2022-08-31T12:06:48.357Z,22.47
2022-08-31T12:09:32.781Z,22.34
2022-08-31T12:12:10.305Z,22.16
2022-08-31T12:14:47.579Z,22.15
2022-08-31T12:17:24.472Z,22.07
2022-08-31T12:20:03.138Z,21.99
2022-08-31T12:23:30.094Z,21.82
2022-08-31T12:26:32.315Z,21.69
2022-08-31T12:29:16.442Z,21.68
2022-08-31T12:31:59.265Z,21.69
2022-08-31T12:34:30.148Z,21.62
2022-08-31T12:36:58.612Z,21.66
2022-08-31T12:39:28.918Z,21.54
2022-08-31T12:42:01.124Z,21.56
2022-08-31T12:44:35.085Z,21.40
2022-08-31T12:47:05.904Z,21.41
2022-08-31T12:49:54.008Z,21.36
2022-08-31T12:52:40.007Z,21.26
2022-08-31T12:55:20.254Z,21.15
2022-08-31T12:57:55.559Z,21.20
2022-08-31T13:00:28.243Z,21.27
2022-08-31T13:03:00.118Z,21.26
2022-08-31T13:05:31.438Z,21.21
2022-08-31T13:08:00.690Z,21.23
2022-08-31T13:10:32.789Z,21.27
2022-08-31T13:13:04.855Z,21.37
2022-08-31T13:15:39.922Z,21.37
2022-08-31T13:18:12.195Z,21.41
2022-08-31T13:20:43.580Z,21.45
2022-08-31T13:23:15.335Z,21.46
2022-08-31T13:25:48.427Z,21.43
2022-08-31T13:28:26.300Z,21.39
2022-08-31T13:31:03.568Z,21.32
2022-08-31T13:33:35.133Z,21.23
2022-08-31T13:36:09.750Z,21.14
2022-08-31T13:38:53.352Z,21.08
2022-08-31T13:41:27.521Z,21.17
2022-08-31T13:44:02.753Z,21.09
2022-08-31T13:46:44.348Z,21.15
2022-08-31T13:49:33.765Z,21.20
2022-08-31T13:52:03.157Z,21.15
2022-08-31T13:54:33.500Z,21.17
2022-08-31T13:57:13.523Z,21.13
2022-08-31T13:59:42.248Z,21.06
2022-08-31T14:02:36.971Z,21.11
2022-08-31T14:05:13.048Z,21.05
2022-08-31T14:07:56.856Z,20.99
2022-08-31T14:10:27.539Z,20.97
2022-08-31T14:12:59.275Z,20.99
2022-08-31T14:15:41.331Z,20.90
2022-08-31T14:18:26.904Z,20.78
2022-08-31T14:21:25.413Z,20.89
2022-08-31T14:24:00.674Z,20.87
2022-08-31T14:26:31.688Z,20.76
2022-08-31T14:29:03.734Z,20.76
2022-08-31T14:31:37.281Z,20.68
2022-08-31T14:34:22.539Z,20.58
2022-08-31T14:36:54.639Z,20.48
2022-08-31T14:39:26.832Z,20.53
2022-08-31T14:41:58.579Z,20.39
2022-08-31T14:44:31.269Z,20.46
2022-08-31T14:47:00.064Z,20.44
2022-08-31T14:49:35.789Z,20.40
2022-08-31T14:52:06.906Z,20.42
2022-08-31T14:54:37.709Z,20.36
2022-08-31T14:57:12.550Z,20.43
2022-08-31T14:59:43.582Z,20.31
2022-08-31T15:02:16.506Z,20.18
2022-08-31T15:04:46.573Z,20.10
2022-08-31T15:07:16.016Z,20.06
2022-08-31T15:09:46.910Z,20.09
2022-08-31T15:12:16.262Z,20.12
2022-08-31T15:14:47.382Z,20.17
2022-08-31T15:17:19.870Z,20.05
2022-08-31T15:19:56.172Z,20.12
2022-08-31T15:22:26.861Z,20.10
2022-08-31T15:24:56.567Z,19.96
2022-08-31T15:27:29.040Z,19.94
2022-08-31T15:30:07.883Z,19.81
2022-08-31T15:32:45.482Z,19.70
2022-08-31T15:35:19.007Z,19.57
2022-08-31T15:37:53.256Z,19.63
2022-08-31T15:40:22.360Z,19.52
2022-08-31T15:42:51.138Z,19.46
2022-08-31T15:45:20.549Z,19.43
2022-08-31T15:48:06.416Z,19.22
2022-08-31T15:50:36.779Z,19.25
2022-08-31T15:53:10.013Z,19.22
2022-08-31T15:55:41.131Z,19.18
2022-08-31T15:58:10.972Z,19.14
2022-08-31T16:00:42.311Z,19.23
2022-08-31T16:03:11.522Z,19.17
2022-08-31T16:05:43.592Z,18.96
2022-08-31T16:08:13.357Z,18.80
2022-08-31T16:10:44.768Z,18.89
2022-08-31T16:13:13.746Z,18.89
2022-08-31T16:15:49.062Z,18.98
2022-08-31T16:18:19.384Z,18.96
2022-08-31T16:20:51.728Z,18.98
2022-08-31T16:23:21.216Z,18.79
2022-08-31T16:25:49.848Z,18.82
2022-08-31T16:28:20.664Z,18.89
2022-08-31T16:30:51.058Z,18.92
2022-08-31T16:33:20.313Z,18.92
2022-08-31T16:35:50.743Z,18.77
2022-08-31T16:38:19.513Z,18.87
2022-08-31T16:40:48.173Z,18.83
2022-08-31T16:43:16.739Z,18.84
2022-08-31T16:45:45.262Z,18.87
2022-08-31T16:48:31.351Z,18.83
2022-08-31T16:51:02.731Z,18.83
2022-08-31T16:53:32.328Z,18.87
2022-08-31T16:56:03.489Z,18.83
2022-08-31T16:58:52.145Z,18.87
2022-08-31T17:01:24.098Z,18.75
2022-08-31T17:03:55.989Z,18.55
2022-08-31T17:06:27.891Z,18.48
2022-08-31T17:08:57.974Z,18.43
2022-08-31T17:11:32.291Z,18.30
2022-08-31T17:14:03.484Z,18.28
2022-08-31T17:16:34.871Z,18.18
2022-08-31T17:19:06.614Z,18.21
2022-08-31T17:21:49.587Z,18.34
2022-08-31T17:24:21.795Z,18.36
2022-08-31T17:26:52.035Z,18.22
2022-08-31T17:29:23.836Z,18.15
2022-08-31T17:31:53.530Z,18.07
2022-08-31T17:34:28.423Z,18.04
2022-08-31T17:37:00.562Z,18.08
2022-08-31T17:39:30.288Z,18.01
2022-08-31T17:41:59.324Z,18.01
2022-08-31T17:44:31.065Z,17.99
2022-08-31T17:47:02.104Z,17.93
2022-08-31T17:49:37.707Z,18.01
2022-08-31T17:52:09.366Z,17.91
2022-08-31T17:54:42.161Z,17.94
2022-08-31T17:57:13.897Z,17.84
2022-08-31T17:59:44.516Z,17.85
2022-08-31T18:02:16.766Z,17.79
2022-08-31T18:04:45.591Z,17.80
2022-08-31T18:07:15.925Z,17.73
2022-08-31T18:09:47.042Z,17.86
2022-08-31T18:12:17.078Z,17.76
2022-08-31T18:14:46.080Z,17.79
2022-08-31T18:17:16.467Z,17.73
2022-08-31T18:19:45.588Z,17.83
2022-08-31T18:22:15.628Z,17.90
2022-08-31T18:24:45.007Z,17.88
2022-08-31T18:27:15.728Z,17.84
2022-08-31T18:29:45.323Z,17.70
2022-08-31T18:32:14.583Z,17.59
2022-08-31T18:34:47.557Z,17.63
2022-08-31T18:37:26.036Z,17.57
2022-08-31T18:40:12.271Z,17.46
2022-08-31T18:42:58.378Z,17.54
2022-08-31T18:45:27.531Z,17.50
2022-08-31T18:50:47.091Z,17.54
2022-08-31T18:53:27.557Z,17.60
2022-08-31T18:56:00.844Z,17.52
2022-08-31T18:58:30.112Z,17.56
2022-08-31T19:00:59.486Z,17.63
2022-08-31T19:03:29.244Z,17.56
2022-08-31T19:05:58.548Z,17.46
2022-08-31T19:08:28.706Z,17.59
2022-08-31T19:10:58.280Z,17.52
2022-08-31T20:08:30.914Z,16.76
2022-08-31T20:10:59.488Z,16.62
2022-08-31T20:13:28.582Z,16.62
2022-08-31T20:15:57.979Z,16.70
2022-08-31T20:18:28.269Z,16.69
2022-08-31T20:20:56.850Z,16.65
2022-08-31T20:23:25.623Z,16.59
2022-08-31T20:25:55.428Z,16.52
2022-08-31T20:28:27.006Z,16.43
2022-08-31T20:31:00.051Z,16.46
2022-08-31T20:33:29.081Z,16.36
2022-08-31T20:35:57.596Z,16.41
2022-08-31T20:38:29.009Z,16.36
2022-08-31T20:40:59.119Z,16.33
2022-08-31T20:43:32.565Z,16.36
2022-08-31T20:46:03.165Z,16.30
2022-08-31T20:48:49.416Z,16.22
2022-08-31T20:51:19.069Z,16.06
2022-08-31T20:53:48.901Z,16.08
2022-08-31T20:56:24.405Z,15.97
2022-08-31T20:58:52.888Z,15.97
2022-08-31T21:01:21.823Z,15.91
2022-08-31T21:03:50.396Z,15.77
2022-08-31T21:06:24.144Z,15.77
2022-08-31T21:08:56.576Z,15.87
2022-08-31T21:11:26.734Z,15.89
2022-08-31T21:13:55.675Z,15.82
2022-08-31T21:16:26.259Z,15.77
2022-08-31T21:18:55.140Z,15.71
2022-08-31T21:21:23.680Z,15.73
2022-08-31T21:23:52.110Z,15.65
2022-08-31T21:26:24.495Z,15.70
2022-08-31T21:28:56.693Z,15.71
2022-08-31T21:31:29.136Z,15.71
2022-08-31T21:34:00.128Z,15.66
2022-08-31T21:36:33.075Z,15.62
2022-08-31T21:39:02.512Z,15.60
2022-08-31T21:41:31.014Z,15.50
2022-08-31T21:44:01.143Z,15.47
2022-08-31T21:46:30.964Z,15.52
2022-08-31T21:49:00.379Z,15.56
2022-08-31T21:51:30.988Z,15.61
2022-08-31T21:54:02.529Z,15.61
2022-08-31T21:56:33.576Z,15.61
2022-08-31T21:59:03.990Z,15.61
2022-08-31T22:01:34.180Z,15.54
2022-08-31T22:04:04.656Z,15.55
2022-08-31T22:06:33.244Z,15.55
2022-08-31T22:09:05.775Z,15.50
2022-08-31T22:11:40.233Z,15.44
2022-08-31T22:14:11.477Z,15.50
2022-08-31T22:16:41.024Z,15.42
2022-08-31T22:19:13.381Z,15.36
2022-08-31T22:21:44.262Z,15.39
2022-08-31T22:24:26.956Z,15.43
2022-08-31T22:26:58.536Z,15.44
2022-08-31T22:29:31.491Z,15.45
2022-08-31T22:32:02.445Z,15.39
2022-08-31T22:34:31.255Z,15.39
2022-08-31T22:36:59.732Z,15.41
2022-08-31T22:39:30.262Z,15.34
2022-08-31T22:42:01.514Z,15.31
2022-08-31T22:44:34.560Z,15.28
2022-08-31T22:47:04.473Z,15.23
2022-08-31T22:49:33.260Z,15.25
2022-08-31T22:52:01.797Z,15.22
2022-08-31T22:54:30.880Z,15.21
2022-08-31T22:56:59.444Z,15.15
2022-08-31T22:59:28.371Z,15.15
2022-08-31T23:02:00.656Z,14.96
2022-08-31T23:04:30.035Z,14.91
2022-08-31T23:06:59.316Z,14.82
2022-08-31T23:09:31.112Z,14.78
2022-08-31T23:12:01.818Z,14.69
2022-08-31T23:14:32.157Z,14.69
2022-08-31T23:17:04.213Z,14.55
2022-08-31T23:19:37.099Z,14.50
2022-08-31T23:22:09.487Z,14.52
2022-08-31T23:24:40.844Z,14.48
2022-08-31T23:27:10.639Z,14.31
2022-08-31T23:29:41.196Z,14.29
2022-08-31T23:32:13.334Z,14.36
2022-08-31T23:34:42.858Z,14.37
2022-08-31T23:37:12.153Z,14.30
2022-08-31T23:39:44.696Z,14.32
2022-08-31T23:42:14.259Z,14.25
2022-08-31T23:44:44.440Z,14.25
2022-08-31T23:47:19.092Z,14.22
2022-08-31T23:49:50.779Z,14.20
2022-08-31T23:52:37.875Z,14.21
2022-08-31T23:55:07.131Z,14.23
2022-08-31T23:57:37.188Z,14.17
